createdAt,value
2023-01-01T00:01:32.556Z,11.91
2023-01-01T00:04:01.026Z,11.88
2023-01-01T00:06:28.790Z,11.89
2023-01-01T00:09:10.331Z,11.88
2023-01-01T00:11:38.099Z,11.86
2023-01-01T00:14:12.012Z,11.88
2023-01-01T00:16:40.889Z,11.58
2023-01-01T00:19:08.729Z,11.52
2023-01-01T00:21:36.529Z,11.27
2023-01-01T00:24:04.510Z,11.45
2023-01-01T00:26:35.256Z,11.33
2023-01-01T00:29:04.120Z,11.22
2023-01-01T00:31:32.384Z,11.35
2023-01-01T00:34:00.314Z,11.23
2023-01-01T00:36:29.045Z,11.26
2023-01-01T00:38:57.368Z,11.21
2023-01-01T00:41:25.363Z,11.19
2023-01-01T00:43:53.045Z,11.28
2023-01-01T00:46:20.921Z,11.21
2023-01-01T00:48:48.668Z,11.19
2023-01-01T00:51:16.300Z,11.22
2023-01-01T00:53:43.959Z,10.76
2023-01-01T00:56:11.723Z,11.16
2023-01-01T00:58:39.695Z,11.01
2023-01-01T01:01:07.687Z,10.97
2023-01-01T01:03:35.552Z,11.26
2023-01-01T01:06:03.180Z,11.33
2023-01-01T01:08:34.982Z,11.13
2023-01-01T01:11:06.906Z,11.20
2023-01-01T01:13:34.597Z,11.35
2023-01-01T01:16:02.374Z,11.61
2023-01-01T01:18:30.076Z,11.73
2023-01-01T01:20:57.761Z,11.59
2023-01-01T01:23:25.425Z,11.59
2023-01-01T01:25:53.128Z,11.76
2023-01-01T01:28:20.853Z,11.68
2023-01-01T01:30:48.514Z,11.60
2023-01-01T01:33:17.199Z,11.62
2023-01-01T01:35:52.080Z,11.60
2023-01-01T01:38:20.471Z,11.58
2023-01-01T01:40:48.104Z,11.51
2023-01-01T01:43:26.036Z,11.45
2023-01-01T01:46:07.286Z,11.50
2023-01-01T01:48:40.595Z,11.59
2023-01-01T01:51:08.777Z,11.62
2023-01-01T01:53:40.051Z,11.38
2023-01-01T01:56:11.633Z,11.51
2023-01-01T01:58:39.925Z,11.52
2023-01-01T02:01:07.731Z,11.51
2023-01-01T02:03:44.910Z,11.44
2023-01-01T02:06:13.114Z,11.56
2023-01-01T02:08:40.857Z,11.52
2023-01-01T02:11:08.494Z,11.69
2023-01-01T02:13:39.904Z,11.75
2023-01-01T02:16:18.027Z,11.47
2023-01-01T02:19:03.984Z,11.67
2023-01-01T02:21:35.727Z,11.58
2023-01-01T02:24:35.747Z,11.66
2023-01-01T02:27:09.229Z,11.70
2023-01-01T02:29:47.834Z,11.73
2023-01-01T02:32:25.444Z,11.66
2023-01-01T02:35:23.904Z,11.72
2023-01-01T02:37:54.797Z,11.70
2023-01-01T02:40:24.853Z,11.39
2023-01-01T02:42:55.057Z,11.64
2023-01-01T02:45:23.142Z,11.72
2023-01-01T02:47:51.030Z,11.67
2023-01-01T02:50:29.014Z,11.70
2023-01-01T02:53:08.537Z,11.74
2023-01-01T02:55:46.379Z,11.69
2023-01-01T02:58:59.490Z,11.76
2023-01-01T03:01:35.499Z,11.72
2023-01-01T03:04:20.399Z,11.67
2023-01-01T03:07:03.622Z,11.76
2023-01-01T03:09:57.757Z,11.72
2023-01-01T03:12:39.867Z,11.60
2023-01-01T03:15:16.230Z,11.68
2023-01-01T03:17:55.652Z,11.54
2023-01-01T03:20:27.924Z,11.55
2023-01-01T03:23:03.273Z,11.67
2023-01-01T03:25:35.900Z,11.65
2023-01-01T03:28:15.643Z,11.58
2023-01-01T03:30:46.954Z,11.52
2023-01-01T03:33:22.524Z,11.61
2023-01-01T03:36:02.251Z,11.44
2023-01-01T03:38:41.589Z,11.28
2023-01-01T03:41:16.113Z,11.39
2023-01-01T03:43:55.456Z,11.40
2023-01-01T03:46:29.308Z,11.41
2023-01-01T03:49:03.303Z,11.21
2023-01-01T03:51:50.619Z,11.29
2023-01-01T03:54:43.783Z,11.24
2023-01-01T03:57:24.564Z,11.18
2023-01-01T04:00:08.089Z,11.27
2023-01-01T04:02:49.925Z,11.24
2023-01-01T04:05:19.050Z,11.55
2023-01-01T04:10:21.294Z,11.45
2023-01-01T04:12:52.176Z,11.56
2023-01-01T04:15:22.421Z,11.45
2023-01-01T04:17:51.246Z,11.23
2023-01-01T04:20:19.197Z,10.95
2023-01-01T04:22:47.654Z,11.20
2023-01-01T04:25:15.661Z,11.30
2023-01-01T04:27:43.315Z,11.26
2023-01-01T04:30:13.793Z,11.00
2023-01-01T04:32:42.165Z,11.22
2023-01-01T04:35:12.735Z,11.17
2023-01-01T04:37:45.463Z,11.05
2023-01-01T04:40:14.225Z,10.56
2023-01-01T04:42:43.360Z,11.08
2023-01-01T04:45:12.400Z,11.18
2023-01-01T04:47:40.117Z,11.15
2023-01-01T04:50:08.232Z,11.36
2023-01-01T04:52:35.838Z,11.51
2023-01-01T04:55:03.506Z,11.55
2023-01-01T04:57:32.467Z,11.39
2023-01-01T05:00:00.181Z,10.99
2023-01-01T05:02:28.183Z,11.40
2023-01-01T05:04:55.902Z,11.50
2023-01-01T05:07:23.547Z,11.21
2023-01-01T05:09:51.268Z,11.59
2023-01-01T05:12:18.976Z,11.56
2023-01-01T05:14:46.630Z,11.43
2023-01-01T05:17:14.883Z,11.50
2023-01-01T05:19:42.593Z,11.48
2023-01-01T05:22:11.162Z,11.48
2023-01-01T05:24:39.218Z,11.51
2023-01-01T05:27:06.934Z,11.43
2023-01-01T05:29:34.587Z,11.52
2023-01-01T05:32:02.250Z,11.62
2023-01-01T05:36:59.185Z,11.51
2023-01-01T05:39:26.880Z,11.50
2023-01-01T05:41:54.508Z,11.61
2023-01-01T05:44:22.166Z,11.25
2023-01-01T05:46:50.279Z,11.58
2023-01-01T05:49:18.017Z,11.59
2023-01-01T05:51:45.655Z,11.60
2023-01-01T05:56:40.028Z,11.57
2023-01-01T05:59:07.692Z,11.56
2023-01-01T06:01:41.832Z,11.62
2023-01-01T06:04:13.093Z,11.54
2023-01-01T06:06:40.749Z,11.60
2023-01-01T06:09:08.466Z,11.57
2023-01-01T06:11:36.103Z,11.40
2023-01-01T06:14:03.898Z,11.17
2023-01-01T06:16:32.581Z,11.21
2023-01-01T06:19:00.378Z,11.07
2023-01-01T06:21:29.737Z,11.23
2023-01-01T06:23:59.305Z,11.30
2023-01-01T06:26:32.578Z,11.41
2023-01-01T06:29:02.794Z,11.45
2023-01-01T06:31:32.999Z,11.47
2023-01-01T06:34:04.760Z,11.54
2023-01-01T06:36:32.484Z,11.21
2023-01-01T06:39:00.490Z,10.98
2023-01-01T06:41:29.492Z,11.52
2023-01-01T06:43:58.190Z,11.52
2023-01-01T06:46:33.888Z,11.39
2023-01-01T06:49:21.792Z,11.51
2023-01-01T06:51:49.424Z,11.54
2023-01-01T06:54:17.082Z,11.40
2023-01-01T06:56:44.812Z,11.47
2023-01-01T06:59:12.556Z,11.54
2023-01-01T07:01:44.310Z,11.46
2023-01-01T07:04:15.145Z,11.47
2023-01-01T07:06:43.530Z,11.62
2023-01-01T07:09:11.166Z,11.61
2023-01-01T07:11:38.841Z,11.64
2023-01-01T07:14:06.462Z,11.63
2023-01-01T07:16:34.248Z,11.64
2023-01-01T07:19:02.035Z,11.51
2023-01-01T07:21:34.770Z,11.62
2023-01-01T07:24:04.905Z,11.62
2023-01-01T07:26:34.183Z,11.72
2023-01-01T07:29:07.361Z,11.75
2023-01-01T07:31:40.815Z,11.73
2023-01-01T07:34:11.286Z,11.74
2023-01-01T07:36:38.924Z,11.80
2023-01-01T07:39:06.888Z,11.67
2023-01-01T07:41:34.539Z,11.83
2023-01-01T07:44:02.241Z,11.77
2023-01-01T07:46:30.258Z,11.80
2023-01-01T07:48:59.321Z,11.72
2023-01-01T07:51:27.720Z,11.64
2023-01-01T07:53:58.156Z,11.77
2023-01-01T07:56:28.536Z,11.72
2023-01-01T07:58:56.226Z,11.66
2023-01-01T08:01:23.957Z,11.60
2023-01-01T08:03:53.734Z,11.62
2023-01-01T08:06:22.486Z,11.67
2023-01-01T08:08:50.352Z,11.74
2023-01-01T08:11:18.005Z,11.75
2023-01-01T08:13:45.680Z,11.78
2023-01-01T08:16:13.505Z,11.78
2023-01-01T08:18:41.181Z,11.81
2023-01-01T08:21:09.449Z,11.81
2023-01-01T08:23:37.073Z,11.82
2023-01-01T08:26:04.950Z,11.67
2023-01-01T08:28:32.702Z,11.82
2023-01-01T08:31:00.497Z,11.79
2023-01-01T08:33:30.120Z,11.82
2023-01-01T08:35:57.821Z,11.84
2023-01-01T08:38:25.581Z,11.82
2023-01-01T08:40:53.603Z,11.82
2023-01-01T08:43:21.372Z,11.83
2023-01-01T08:45:50.785Z,11.85
2023-01-01T08:48:25.624Z,11.79
2023-01-01T08:51:00.212Z,11.82
2023-01-01T08:53:29.674Z,11.68
2023-01-01T08:56:03.779Z,11.83
2023-01-01T08:58:32.607Z,11.83
2023-01-01T09:01:03.232Z,11.84
2023-01-01T09:03:31.118Z,11.87
2023-01-01T09:05:58.921Z,11.80
2023-01-01T09:08:27.115Z,11.49
2023-01-01T09:10:58.775Z,11.89
2023-01-01T09:13:26.482Z,11.92
2023-01-01T09:15:54.374Z,11.91
2023-01-01T09:18:22.140Z,11.80
2023-01-01T09:20:50.036Z,11.95
2023-01-01T09:23:17.676Z,11.96
2023-01-01T09:25:45.328Z,12.00
2023-01-01T09:28:14.802Z,11.99
2023-01-01T09:30:42.551Z,12.01
2023-01-01T09:33:10.331Z,11.95
2023-01-01T09:35:38.865Z,12.09
2023-01-01T09:38:06.592Z,11.96
2023-01-01T09:41:03.340Z,12.09
2023-01-01T09:43:48.968Z,12.16
2023-01-01T09:46:16.836Z,12.11
2023-01-01T09:49:08.285Z,12.24
2023-01-01T09:51:45.238Z,12.30
2023-01-01T09:54:30.542Z,12.27
2023-01-01T09:57:00.914Z,12.09
2023-01-01T09:59:29.058Z,12.27
2023-01-01T10:02:02.882Z,12.31
2023-01-01T10:04:49.699Z,12.33
2023-01-01T10:07:38.617Z,12.27
2023-01-01T10:10:41.719Z,12.28
2023-01-01T10:13:19.003Z,12.22
2023-01-01T10:15:57.270Z,12.30
2023-01-01T10:18:29.963Z,12.31
2023-01-01T10:21:18.026Z,12.39
2023-01-01T10:23:52.221Z,12.29
2023-01-01T10:26:22.218Z,12.38
2023-01-01T10:29:01.658Z,12.51
2023-01-01T10:31:38.011Z,12.40
2023-01-01T10:34:17.222Z,12.38
2023-01-01T10:36:45.568Z,12.33
2023-01-01T10:39:20.316Z,12.41
2023-01-01T10:41:49.213Z,12.59
2023-01-01T10:44:20.851Z,12.73
2023-01-01T10:46:57.469Z,12.71
2023-01-01T10:49:25.393Z,13.30
2023-01-01T10:51:55.638Z,13.41
2023-01-01T10:54:41.699Z,13.37
2023-01-01T10:57:21.743Z,13.36
2023-01-01T10:59:54.193Z,13.31
2023-01-01T11:02:27.503Z,13.91
2023-01-01T11:05:22.008Z,14.17
2023-01-01T11:07:50.291Z,14.15
2023-01-01T11:10:23.963Z,14.09
2023-01-01T11:13:08.890Z,14.16
2023-01-01T11:15:44.223Z,14.59
2023-01-01T11:18:21.917Z,14.82
2023-01-01T11:20:55.177Z,15.09
2023-01-01T11:23:40.762Z,14.93
2023-01-01T11:26:28.860Z,14.88
2023-01-01T11:29:26.279Z,14.35
2023-01-01T11:31:54.360Z,14.74
2023-01-01T11:34:35.514Z,15.02
2023-01-01T11:37:15.411Z,14.78
2023-01-01T11:39:45.990Z,14.92
2023-01-01T11:42:26.417Z,14.61
2023-01-01T11:44:58.328Z,14.67
2023-01-01T11:47:33.065Z,14.39
2023-01-01T11:50:09.012Z,14.66
2023-01-01T11:52:42.777Z,14.41
2023-01-01T11:55:42.123Z,14.65
2023-01-01T11:58:20.024Z,14.37
2023-01-01T12:00:52.069Z,14.64
2023-01-01T12:03:34.292Z,14.26
2023-01-01T12:06:17.314Z,14.96
2023-01-01T12:08:57.051Z,14.82
2023-01-01T12:11:32.985Z,14.43
2023-01-01T12:14:20.348Z,14.61
2023-01-01T12:17:14.020Z,15.22
2023-01-01T12:19:56.850Z,15.37
2023-01-01T12:22:26.738Z,15.46
2023-01-01T12:24:55.377Z,15.63
2023-01-01T12:27:53.683Z,14.75
2023-01-01T12:30:25.277Z,15.12
2023-01-01T12:33:08.149Z,14.74
2023-01-01T12:35:48.104Z,14.38
2023-01-01T12:38:37.929Z,13.97
2023-01-01T12:41:24.195Z,13.90
2023-01-01T12:44:31.624Z,13.73
2023-01-01T12:47:17.978Z,13.63
2023-01-01T12:50:01.457Z,13.69
2023-01-01T12:52:58.449Z,13.52
2023-01-01T12:55:42.822Z,13.59
2023-01-01T12:58:18.873Z,13.48
2023-01-01T13:00:56.155Z,13.61
2023-01-01T13:03:29.888Z,13.45
2023-01-01T13:05:59.984Z,13.36
2023-01-01T13:08:27.674Z,13.34
2023-01-01T13:10:59.328Z,13.30
2023-01-01T13:13:27.447Z,13.31
2023-01-01T13:15:57.544Z,13.25
2023-01-01T13:18:28.615Z,13.11
2023-01-01T13:20:59.491Z,13.22
2023-01-01T13:23:34.718Z,13.29
2023-01-01T13:26:20.951Z,13.31
2023-01-01T13:28:51.427Z,13.28
2023-01-01T13:31:19.644Z,13.23
2023-01-01T13:34:26.166Z,13.33
2023-01-01T13:37:14.032Z,13.05
2023-01-01T13:39:55.402Z,13.37
2023-01-01T13:42:52.333Z,13.21
2023-01-01T13:46:09.949Z,13.17
2023-01-01T13:48:27.416Z,13.13
2023-01-01T13:52:03.076Z,13.07
2023-01-01T13:54:26.841Z,13.04
2023-01-01T13:56:59.573Z,13.03
2023-01-01T13:59:39.959Z,13.05
2023-01-01T14:02:23.599Z,13.06
2023-01-01T14:05:03.104Z,13.01
2023-01-01T14:07:52.852Z,12.93
2023-01-01T14:10:29.537Z,13.12
2023-01-01T14:13:08.512Z,12.98
2023-01-01T14:15:39.695Z,13.03
2023-01-01T14:18:18.720Z,13.00
2023-01-01T14:20:49.624Z,12.77
2023-01-01T14:23:32.452Z,12.96
2023-01-01T14:26:03.519Z,12.84
2023-01-01T14:28:33.923Z,12.90
2023-01-01T14:31:11.537Z,12.86
2023-01-01T14:33:39.925Z,12.86
2023-01-01T14:36:24.145Z,12.81
2023-01-01T14:38:54.051Z,12.83
2023-01-01T14:41:43.755Z,12.80
2023-01-01T14:44:13.221Z,12.76
2023-01-01T14:46:42.495Z,12.74
2023-01-01T14:49:13.472Z,12.72
2023-01-01T14:51:45.273Z,12.71
2023-01-01T14:54:18.019Z,12.71
2023-01-01T14:56:48.466Z,12.60
2023-01-01T14:59:21.998Z,12.65
2023-01-01T15:02:01.144Z,12.55
2023-01-01T15:04:29.857Z,12.52
2023-01-01T15:06:59.417Z,12.61
2023-01-01T15:09:28.923Z,12.60
2023-01-01T15:11:57.990Z,12.46
2023-01-01T15:14:40.181Z,12.54
2023-01-01T15:17:12.449Z,12.54
2023-01-01T15:19:42.621Z,12.50
2023-01-01T15:22:27.856Z,12.48
2023-01-01T15:24:56.052Z,12.48
2023-01-01T15:27:28.549Z,12.42
2023-01-01T15:29:57.660Z,12.43
2023-01-01T15:32:32.132Z,12.43
2023-01-01T15:35:02.095Z,12.42
2023-01-01T15:37:33.810Z,12.46
2023-01-01T15:40:27.955Z,12.42
2023-01-01T15:42:55.547Z,12.43
2023-01-01T15:46:15.864Z,12.40
2023-01-01T15:48:54.192Z,12.37
2023-01-01T15:51:27.280Z,12.28
2023-01-01T15:54:04.968Z,12.37
2023-01-01T15:56:35.042Z,12.35
2023-01-01T15:59:09.622Z,12.33
2023-01-01T16:01:40.675Z,12.31
2023-01-01T16:04:12.153Z,12.32
2023-01-01T16:06:51.347Z,12.30
2023-01-01T16:09:20.507Z,12.32
2023-01-01T16:11:53.835Z,12.11
2023-01-01T16:14:21.723Z,12.30
2023-01-01T16:16:57.387Z,12.28
2023-01-01T16:19:26.018Z,12.27
2023-01-01T16:21:54.085Z,12.26
2023-01-01T16:24:22.127Z,12.18
2023-01-01T16:26:49.928Z,12.07
2023-01-01T16:29:18.182Z,12.22
2023-01-01T16:31:47.445Z,12.22
2023-01-01T16:34:15.789Z,12.23
2023-01-01T16:36:45.135Z,12.18
2023-01-01T16:39:13.198Z,12.18
2023-01-01T16:41:42.663Z,12.13
2023-01-01T16:44:14.967Z,12.10
2023-01-01T16:46:43.326Z,12.19
2023-01-01T16:49:11.100Z,12.20
2023-01-01T16:51:43.400Z,12.09
2023-01-01T16:54:11.667Z,12.19
2023-01-01T16:56:39.349Z,12.18
2023-01-01T16:59:07.033Z,12.07
2023-01-01T17:01:34.726Z,12.18
2023-01-01T17:04:02.531Z,12.07
2023-01-01T17:06:30.179Z,12.10
2023-01-01T17:08:59.570Z,12.13
2023-01-01T17:11:27.575Z,12.16
2023-01-01T17:13:55.235Z,11.89
2023-01-01T17:16:27.963Z,12.13
2023-01-01T17:19:16.182Z,12.14
2023-01-01T17:21:48.072Z,12.13
2023-01-01T17:24:20.939Z,12.10
2023-01-01T17:26:52.999Z,12.13
2023-01-01T17:29:22.530Z,12.11
2023-01-01T17:31:50.209Z,12.11
2023-01-01T17:34:18.458Z,12.09
2023-01-01T17:36:46.925Z,12.08
2023-01-01T17:39:16.084Z,12.10
2023-01-01T17:41:45.376Z,12.11
2023-01-01T17:44:13.036Z,12.02
2023-01-01T17:46:40.784Z,11.98
2023-01-01T17:49:09.172Z,12.08
2023-01-01T17:51:37.251Z,12.03
2023-01-01T17:54:07.206Z,12.08
2023-01-01T17:56:35.064Z,12.05
2023-01-01T17:59:02.772Z,11.89
2023-01-01T18:01:33.102Z,12.09
2023-01-01T18:04:06.566Z,12.08
2023-01-01T18:06:41.302Z,11.96
2023-01-01T18:09:12.869Z,12.08
2023-01-01T18:11:41.499Z,12.08
2023-01-01T18:14:09.344Z,12.10
2023-01-01T18:16:39.673Z,12.12
2023-01-01T18:19:08.211Z,12.08
2023-01-01T18:21:36.453Z,12.06
2023-01-01T18:24:04.165Z,12.04
2023-01-01T18:26:32.296Z,12.05
2023-01-01T18:29:02.482Z,11.91
2023-01-01T18:31:33.327Z,12.10
2023-01-01T18:34:04.217Z,12.10
2023-01-01T18:36:34.273Z,11.75
2023-01-01T18:39:15.905Z,12.06
2023-01-01T18:41:49.361Z,12.03
2023-01-01T18:44:24.780Z,12.04
2023-01-01T18:47:07.673Z,12.05
2023-01-01T18:49:37.813Z,12.06
2023-01-01T18:52:08.499Z,12.06
2023-01-01T18:54:36.742Z,12.06
2023-01-01T18:57:11.232Z,12.03
2023-01-01T18:59:39.320Z,12.01
2023-01-01T19:02:22.626Z,12.03
2023-01-01T19:04:50.802Z,12.01
2023-01-01T19:07:18.509Z,12.01
2023-01-01T19:09:46.117Z,12.05
2023-01-01T19:12:19.523Z,12.02
2023-01-01T19:14:49.331Z,11.99
2023-01-01T19:17:23.197Z,11.94
2023-01-01T19:19:52.568Z,11.96
2023-01-01T19:22:31.847Z,12.06
2023-01-01T19:25:03.841Z,12.05
2023-01-01T19:27:34.148Z,12.08
2023-01-01T19:30:03.077Z,12.10
2023-01-01T19:32:30.701Z,12.01
2023-01-01T19:34:58.380Z,12.07
2023-01-01T19:37:26.020Z,12.05
2023-01-01T19:39:53.681Z,12.03
2023-01-01T19:42:21.343Z,12.06
2023-01-01T19:44:48.966Z,12.02
2023-01-01T19:47:16.618Z,12.04
2023-01-01T19:49:44.223Z,12.01
2023-01-01T19:52:11.862Z,12.04
2023-01-01T19:54:39.544Z,12.01
2023-01-01T19:57:07.167Z,12.00
2023-01-01T19:59:37.164Z,12.01
2023-01-01T20:04:54.263Z,12.06
2023-01-01T20:07:21.931Z,12.05
2023-01-01T20:09:49.642Z,12.01
2023-01-01T20:12:17.332Z,11.85
2023-01-01T20:14:44.971Z,12.01
2023-01-01T20:17:14.733Z,11.99
2023-01-01T20:19:46.843Z,11.90
2023-01-01T20:22:14.980Z,12.03
2023-01-01T20:24:42.816Z,11.84
2023-01-01T20:27:11.510Z,11.87
2023-01-01T20:29:39.840Z,11.99
2023-01-01T20:32:12.430Z,11.95
2023-01-01T20:34:41.316Z,11.93
2023-01-01T20:37:27.370Z,12.04
2023-01-01T20:39:55.352Z,12.01
2023-01-01T20:42:23.085Z,11.93
2023-01-01T20:44:50.822Z,11.94
2023-01-01T20:47:18.531Z,11.99
2023-01-01T20:49:46.298Z,11.96
2023-01-01T20:52:15.519Z,12.00
2023-01-01T20:54:43.201Z,12.01
2023-01-01T20:57:10.911Z,11.98
2023-01-01T20:59:38.987Z,12.00
2023-01-01T21:02:09.506Z,12.04
2023-01-01T21:04:39.571Z,12.03
2023-01-01T21:07:12.797Z,12.01
2023-01-01T21:09:41.768Z,11.88
2023-01-01T21:12:10.423Z,11.98
2023-01-01T21:14:38.128Z,11.97
2023-01-01T21:17:23.736Z,11.98
2023-01-01T21:19:57.457Z,11.98
2023-01-01T21:22:25.376Z,11.96
2023-01-01T21:24:55.508Z,11.72
2023-01-01T21:27:34.547Z,11.94
2023-01-01T21:30:02.344Z,11.89
2023-01-01T21:32:41.115Z,11.92
2023-01-01T21:35:24.407Z,11.90
2023-01-01T21:37:59.183Z,11.80
2023-01-01T21:40:32.629Z,11.88
2023-01-01T21:43:25.449Z,11.85
2023-01-01T21:45:53.585Z,11.58
2023-01-01T21:48:45.175Z,11.81
2023-01-01T21:51:27.745Z,11.79
2023-01-01T21:54:03.584Z,11.48
2023-01-01T21:56:37.487Z,11.83
2023-01-01T21:59:28.213Z,11.81
2023-01-01T22:02:29.127Z,11.86
2023-01-01T22:04:56.991Z,11.87
2023-01-01T22:10:25.097Z,11.87
2023-01-01T22:13:00.150Z,11.81
2023-01-01T22:15:27.890Z,11.82
2023-01-01T22:18:04.915Z,11.78
2023-01-01T22:20:35.729Z,11.80
2023-01-01T22:23:05.624Z,11.76
2023-01-01T22:25:33.903Z,11.78
2023-01-01T22:28:18.580Z,11.76
2023-01-01T22:30:46.513Z,11.75
2023-01-01T22:33:27.812Z,11.62
2023-01-01T22:35:57.890Z,11.62
2023-01-01T22:38:33.188Z,11.74
2023-01-01T22:41:01.550Z,11.69
2023-01-01T22:43:35.709Z,11.68
2023-01-01T22:46:15.636Z,11.64
2023-01-01T22:48:43.325Z,11.74
2023-01-01T22:51:19.433Z,11.74
2023-01-01T22:53:47.153Z,11.36
2023-01-01T22:56:17.587Z,11.73
2023-01-01T22:58:45.264Z,11.68
2023-01-01T23:01:12.954Z,11.68
2023-01-01T23:03:40.761Z,11.63
2023-01-01T23:06:08.572Z,11.66
2023-01-01T23:08:36.316Z,11.52
2023-01-01T23:11:04.203Z,11.68
2023-01-01T23:13:49.260Z,11.65
2023-01-01T23:16:17.062Z,11.64
2023-01-01T23:18:44.996Z,11.62
2023-01-01T23:21:22.734Z,11.66
2023-01-01T23:23:57.163Z,11.60
2023-01-01T23:26:25.820Z,11.64
2023-01-01T23:28:55.765Z,11.43
2023-01-01T23:31:26.238Z,11.62
2023-01-01T23:33:56.023Z,11.67
2023-01-01T23:36:25.791Z,11.63
2023-01-01T23:38:53.469Z,11.64
2023-01-01T23:41:22.441Z,11.66
2023-01-01T23:43:50.913Z,11.50
2023-01-01T23:46:19.310Z,11.62
2023-01-01T23:48:48.856Z,11.64
2023-01-01T23:51:18.088Z,11.74
2023-01-01T23:53:46.347Z,11.79
2023-01-01T23:56:13.959Z,11.74
2023-01-01T23:58:41.625Z,11.76
